sensor_id;sensor_type;location;lat;lon;timestamp;pressure;altitude;pressure_sealevel;temperature;humidity
53715;BME280;39608;55.630;37.864;2023-07-13T00:01:14;98588.34;;;15.31;57.24
53715;BME280;39608;55.630;37.864;2023-07-13T00:06:17;98580.50;;;15.30;57.19
53715;BME280;39608;55.630;37.864;2023-07-13T00:11:20;98582.88;;;15.31;57.22
53715;BME280;39608;55.630;37.864;2023-07-13T00:16:23;98590.38;;;15.34;57.21
53715;BME280;39608;55.630;37.864;2023-07-13T00:21:25;98582.09;;;15.31;57.23
53715;BME280;39608;55.630;37.864;2023-07-13T00:26:27;98584.91;;;15.34;57.19
53715;BME280;39608;55.630;37.864;2023-07-13T00:31:31;98594.00;;;15.38;57.47
53715;BME280;39608;55.630;37.864;2023-07-13T00:36:33;98590.84;;;15.36;57.57
53715;BME280;39608;55.630;37.864;2023-07-13T00:41:36;98588.47;;;15.35;57.32
53715;BME280;39608;55.630;37.864;2023-07-13T00:46:40;98590.91;;;15.40;57.77
53715;BME280;39608;55.630;37.864;2023-07-13T00:51:45;98548.91;;;15.16;57.60
53715;BME280;39608;55.630;37.864;2023-07-13T00:56:51;98594.47;;;15.40;57.36
53715;BME280;39608;55.630;37.864;2023-07-13T01:01:55;98585.56;;;15.44;57.55
53715;BME280;39608;55.630;37.864;2023-07-13T01:06:58;98585.56;;;15.44;57.57
53715;BME280;39608;55.630;37.864;2023-07-13T01:12:03;98585.22;;;15.45;57.62
53715;BME280;39608;55.630;37.864;2023-07-13T01:17:08;98565.97;;;15.42;57.71
53715;BME280;39608;55.630;37.864;2023-07-13T01:22:15;98565.38;;;15.48;57.67
53715;BME280;39608;55.630;37.864;2023-07-13T01:27:25;98561.41;;;15.46;57.28
53715;BME280;39608;55.630;37.864;2023-07-13T01:32:28;98567.13;;;15.40;57.71
53715;BME280;39608;55.630;37.864;2023-07-13T01:37:33;98562.34;;;15.37;58.17
53715;BME280;39608;55.630;37.864;2023-07-13T01:42:37;98553.97;;;15.30;58.03
53715;BME280;39608;55.630;37.864;2023-07-13T01:47:39;98562.28;;;15.34;58.07
53715;BME280;39608;55.630;37.864;2023-07-13T01:52:42;98564.31;;;15.37;58.51
53715;BME280;39608;55.630;37.864;2023-07-13T01:57:44;98544.81;;;15.38;57.98
53715;BME280;39608;55.630;37.864;2023-07-13T02:02:47;98542.63;;;15.28;58.21
53715;BME280;39608;55.630;37.864;2023-07-13T02:07:51;98560.88;;;15.40;58.40
53715;BME280;39608;55.630;37.864;2023-07-13T02:12:53;98565.44;;;15.36;58.42
53715;BME280;39608;55.630;37.864;2023-07-13T02:17:55;98551.78;;;15.36;58.55
53715;BME280;39608;55.630;37.864;2023-07-13T02:23:20;98551.78;;;15.36;58.61
53715;BME280;39608;55.630;37.864;2023-07-13T02:28:22;98550.28;;;15.38;58.52
53715;BME280;39608;55.630;37.864;2023-07-13T02:33:24;98544.81;;;15.38;58.51
53715;BME280;39608;55.630;37.864;2023-07-13T02:38:28;98532.66;;;15.36;58.69
53715;BME280;39608;55.630;37.864;2023-07-13T02:43:30;98523.56;;;15.32;58.56
53715;BME280;39608;55.630;37.864;2023-07-13T02:48:32;98538.75;;;15.45;58.97
53715;BME280;39608;55.630;37.864;2023-07-13T02:53:35;98534.88;;;15.46;59.02
53715;BME280;39608;55.630;37.864;2023-07-13T02:58:37;98537.97;;;15.45;59.06
53715;BME280;39608;55.630;37.864;2023-07-13T03:03:39;98539.47;;;15.42;59.20
53715;BME280;39608;55.630;37.864;2023-07-13T03:08:44;98520.94;;;15.35;59.26
53715;BME280;39608;55.630;37.864;2023-07-13T03:13:46;98526.22;;;15.44;59.29
53715;BME280;39608;55.630;37.864;2023-07-13T03:18:49;98537.63;;;15.46;59.09
53715;BME280;39608;55.630;37.864;2023-07-13T03:23:53;98536.03;;;15.45;59.10
53715;BME280;39608;55.630;37.864;2023-07-13T03:28:55;98530.31;;;15.50;59.17
53715;BME280;39608;55.630;37.864;2023-07-13T03:33:57;98525.53;;;15.47;59.21
53715;BME280;39608;55.630;37.864;2023-07-13T03:39:02;98517.00;;;15.49;59.31
53715;BME280;39608;55.630;37.864;2023-07-13T03:44:04;98544.56;;;15.60;59.22
53715;BME280;39608;55.630;37.864;2023-07-13T03:49:09;98533.56;;;15.56;59.33
53715;BME280;39608;55.630;37.864;2023-07-13T03:54:15;98551.03;;;15.67;59.20
53715;BME280;39608;55.630;37.864;2023-07-13T03:59:17;98554.53;;;15.68;59.19
53715;BME280;39608;55.630;37.864;2023-07-13T04:04:19;98555.44;;;15.72;59.34
53715;BME280;39608;55.630;37.864;2023-07-13T04:09:23;98542.56;;;15.72;59.30
53715;BME280;39608;55.630;37.864;2023-07-13T04:14:25;98559.19;;;15.80;59.24
53715;BME280;39608;55.630;37.864;2023-07-13T04:19:27;98552.22;;;15.82;59.27
53715;BME280;39608;55.630;37.864;2023-07-13T04:24:30;98550.94;;;15.96;59.15
53715;BME280;39608;55.630;37.864;2023-07-13T04:29:32;98549.34;;;15.95;58.94
53715;BME280;39608;55.630;37.864;2023-07-13T04:34:34;98545.56;;;15.99;59.13
53715;BME280;39608;55.630;37.864;2023-07-13T04:39:37;98550.41;;;16.06;59.12
53715;BME280;39608;55.630;37.864;2023-07-13T04:44:39;98548.63;;;16.14;59.00
53715;BME280;39608;55.630;37.864;2023-07-13T04:49:42;98550.13;;;16.27;58.73
53715;BME280;39608;55.630;37.864;2023-07-13T04:54:45;98547.09;;;16.32;58.48
53715;BME280;39608;55.630;37.864;2023-07-13T04:59:47;98545.69;;;16.38;58.55
53715;BME280;39608;55.630;37.864;2023-07-13T05:04:49;98543.50;;;16.48;58.48
53715;BME280;39608;55.630;37.864;2023-07-13T05:09:53;98545.19;;;16.52;58.37
53715;BME280;39608;55.630;37.864;2023-07-13T05:14:55;98542.47;;;16.52;58.20
53715;BME280;39608;55.630;37.864;2023-07-13T05:19:57;98552.91;;;16.66;58.17
53715;BME280;39608;55.630;37.864;2023-07-13T05:25:00;98551.75;;;16.87;57.85
53715;BME280;39608;55.630;37.864;2023-07-13T05:30:06;98554.16;;;17.08;57.76
53715;BME280;39608;55.630;37.864;2023-07-13T05:35:11;98565.34;;;17.42;57.00
53715;BME280;39608;55.630;37.864;2023-07-13T05:40:14;98567.72;;;18.13;56.36
53715;BME280;39608;55.630;37.864;2023-07-13T05:45:16;98545.13;;;18.50;55.37
53715;BME280;39608;55.630;37.864;2023-07-13T05:50:18;98548.47;;;18.36;55.27
53715;BME280;39608;55.630;37.864;2023-07-13T05:55:22;98537.97;;;18.15;55.23
53715;BME280;39608;55.630;37.864;2023-07-13T06:00:25;98549.31;;;18.13;55.22
53715;BME280;39608;55.630;37.864;2023-07-13T06:05:27;98549.34;;;18.17;54.90
53715;BME280;39608;55.630;37.864;2023-07-13T06:10:32;98539.06;;;18.37;54.54
53715;BME280;39608;55.630;37.864;2023-07-13T06:15:34;98536.03;;;18.46;54.29
53715;BME280;39608;55.630;37.864;2023-07-13T06:20:36;98542.97;;;18.67;53.62
53715;BME280;39608;55.630;37.864;2023-07-13T06:25:39;98544.28;;;18.76;53.54
53715;BME280;39608;55.630;37.864;2023-07-13T06:30:41;98533.53;;;18.94;52.93
53715;BME280;39608;55.630;37.864;2023-07-13T06:35:44;98523.53;;;19.13;52.10
53715;BME280;39608;55.630;37.864;2023-07-13T06:40:47;98513.91;;;19.34;51.96
53715;BME280;39608;55.630;37.864;2023-07-13T06:45:49;98515.69;;;19.56;50.80
53715;BME280;39608;55.630;37.864;2023-07-13T06:50:51;98519.50;;;19.86;49.98
53715;BME280;39608;55.630;37.864;2023-07-13T06:55:55;98514.81;;;19.90;49.44
53715;BME280;39608;55.630;37.864;2023-07-13T07:00:57;98512.34;;;19.81;49.38
53715;BME280;39608;55.630;37.864;2023-07-13T07:06:12;98512.00;;;19.86;49.21
53715;BME280;39608;55.630;37.864;2023-07-13T07:11:17;98509.19;;;19.79;48.06
53715;BME280;39608;55.630;37.864;2023-07-13T07:16:21;98531.09;;;19.68;49.19
53715;BME280;39608;55.630;37.864;2023-07-13T07:21:23;98548.25;;;19.54;48.80
53715;BME280;39608;55.630;37.864;2023-07-13T07:26:27;98539.97;;;19.09;49.24
53715;BME280;39608;55.630;37.864;2023-07-13T07:31:29;98527.09;;;18.83;50.28
53715;BME280;39608;55.630;37.864;2023-07-13T07:36:32;98527.81;;;18.80;50.29
53715;BME280;39608;55.630;37.864;2023-07-13T07:47:00;98530.03;;;18.97;50.60
53715;BME280;39608;55.630;37.864;2023-07-13T07:52:21;98537.84;;;19.29;50.03
53715;BME280;39608;55.630;37.864;2023-07-13T07:57:27;98529.59;;;19.29;49.52
53715;BME280;39608;55.630;37.864;2023-07-13T08:02:29;98530.75;;;19.28;49.86
53715;BME280;39608;55.630;37.864;2023-07-13T08:07:31;98554.09;;;19.08;50.13
53715;BME280;39608;55.630;37.864;2023-07-13T08:12:35;98555.09;;;18.92;50.63
53715;BME280;39608;55.630;37.864;2023-07-13T08:17:37;98550.03;;;18.68;50.94
53715;BME280;39608;55.630;37.864;2023-07-13T08:22:39;98557.69;;;18.51;51.42
53715;BME280;39608;55.630;37.864;2023-07-13T08:27:43;98554.31;;;18.35;51.49
53715;BME280;39608;55.630;37.864;2023-07-13T08:32:45;98558.44;;;18.21;52.47
53715;BME280;39608;55.630;37.864;2023-07-13T08:37:47;98548.16;;;18.15;52.61
53715;BME280;39608;55.630;37.864;2023-07-13T08:42:54;98555.28;;;18.19;53.29
53715;BME280;39608;55.630;37.864;2023-07-13T08:48:00;98550.19;;;18.21;52.31
53715;BME280;39608;55.630;37.864;2023-07-13T08:53:04;98558.50;;;18.25;52.73
53715;BME280;39608;55.630;37.864;2023-07-13T08:58:11;98561.72;;;18.30;52.39
53715;BME280;39608;55.630;37.864;2023-07-13T09:03:20;98559.38;;;18.33;51.82
53715;BME280;39608;55.630;37.864;2023-07-13T09:08:36;98557.16;;;18.42;51.25
53715;BME280;39608;55.630;37.864;2023-07-13T09:13:50;98554.94;;;18.51;50.95
53715;BME280;39608;55.630;37.864;2023-07-13T09:19:00;98565.22;;;18.58;51.35
53715;BME280;39608;55.630;37.864;2023-07-13T09:24:28;98561.03;;;18.68;51.57
53715;BME280;39608;55.630;37.864;2023-07-13T09:29:33;98577.16;;;18.69;52.47
53715;BME280;39608;55.630;37.864;2023-07-13T09:34:36;98593.44;;;18.85;52.57
53715;BME280;39608;55.630;37.864;2023-07-13T09:39:40;98592.53;;;19.04;53.48
53715;BME280;39608;55.630;37.864;2023-07-13T09:44:53;98561.63;;;18.84;53.97
53715;BME280;39608;55.630;37.864;2023-07-13T09:49:57;98576.88;;;18.78;53.92
53715;BME280;39608;55.630;37.864;2023-07-13T09:54:59;98586.09;;;18.62;54.45
53715;BME280;39608;55.630;37.864;2023-07-13T10:00:05;98587.44;;;18.45;55.29
53715;BME280;39608;55.630;37.864;2023-07-13T10:05:13;98585.16;;;18.24;55.09
53715;BME280;39608;55.630;37.864;2023-07-13T10:10:17;98575.81;;;18.02;56.23
53715;BME280;39608;55.630;37.864;2023-07-13T10:15:23;98594.31;;;18.09;55.75
53715;BME280;39608;55.630;37.864;2023-07-13T10:20:26;98599.56;;;17.94;56.42
53715;BME280;39608;55.630;37.864;2023-07-13T10:25:32;98588.44;;;17.87;57.03
53715;BME280;39608;55.630;37.864;2023-07-13T10:30:40;98598.88;;;17.78;57.28
53715;BME280;39608;55.630;37.864;2023-07-13T10:35:45;98598.78;;;17.51;57.48
53715;BME280;39608;55.630;37.864;2023-07-13T10:40:54;98599.28;;;17.34;58.49
53715;BME280;39608;55.630;37.864;2023-07-13T10:46:00;98603.94;;;17.14;58.58
53715;BME280;39608;55.630;37.864;2023-07-13T10:51:05;98609.50;;;16.98;59.08
53715;BME280;39608;55.630;37.864;2023-07-13T10:56:21;98612.81;;;16.87;59.79
53715;BME280;39608;55.630;37.864;2023-07-13T11:01:25;98623.88;;;16.75;59.89
53715;BME280;39608;55.630;37.864;2023-07-13T11:06:41;98617.75;;;16.62;60.47
53715;BME280;39608;55.630;37.864;2023-07-13T11:11:44;98608.41;;;16.47;61.05
53715;BME280;39608;55.630;37.864;2023-07-13T11:16:48;98608.97;;;16.37;61.00
53715;BME280;39608;55.630;37.864;2023-07-13T11:22:02;98600.94;;;16.28;62.13
53715;BME280;39608;55.630;37.864;2023-07-13T11:27:22;98607.72;;;16.34;61.79
53715;BME280;39608;55.630;37.864;2023-07-13T11:32:30;98599.38;;;16.27;61.81
53715;BME280;39608;55.630;37.864;2023-07-13T11:37:32;98614.88;;;16.39;61.62
53715;BME280;39608;55.630;37.864;2023-07-13T11:42:35;98611.00;;;16.40;62.12
53715;BME280;39608;55.630;37.864;2023-07-13T11:47:42;98584.59;;;16.32;63.01
53715;BME280;39608;55.630;37.864;2023-07-13T11:52:44;98592.09;;;16.35;63.19
53715;BME280;39608;55.630;37.864;2023-07-13T11:57:50;98603.41;;;16.33;63.48
53715;BME280;39608;55.630;37.864;2023-07-13T12:02:56;98588.22;;;16.20;63.99
53715;BME280;39608;55.630;37.864;2023-07-13T12:08:08;98588.75;;;16.25;63.51
53715;BME280;39608;55.630;37.864;2023-07-13T12:13:12;98597.16;;;16.17;63.71
53715;BME280;39608;55.630;37.864;2023-07-13T12:18:18;98596.38;;;16.16;63.75
53715;BME280;39608;55.630;37.864;2023-07-13T12:23:23;98588.63;;;16.02;63.81
53715;BME280;39608;55.630;37.864;2023-07-13T12:28:32;98596.72;;;15.99;64.57
53715;BME280;39608;55.630;37.864;2023-07-13T12:33:39;98590.81;;;15.97;64.90
53715;BME280;39608;55.630;37.864;2023-07-13T12:38:45;98586.13;;;15.97;65.18
53715;BME280;39608;55.630;37.864;2023-07-13T12:43:47;98576.00;;;15.98;64.58
53715;BME280;39608;55.630;37.864;2023-07-13T12:48:52;98583.16;;;16.02;64.76
53715;BME280;39608;55.630;37.864;2023-07-13T12:53:58;98585.63;;;16.07;64.87
53715;BME280;39608;55.630;37.864;2023-07-13T12:59:15;98580.69;;;16.13;65.04
53715;BME280;39608;55.630;37.864;2023-07-13T13:04:20;98576.69;;;16.11;64.89
53715;BME280;39608;55.630;37.864;2023-07-13T13:09:23;98594.50;;;16.04;64.88
53715;BME280;39608;55.630;37.864;2023-07-13T13:14:25;98578.81;;;16.01;65.00
53715;BME280;39608;55.630;37.864;2023-07-13T13:19:29;98569.31;;;15.95;65.32
53715;BME280;39608;55.630;37.864;2023-07-13T13:24:31;98569.66;;;15.94;65.63
53715;BME280;39608;55.630;37.864;2023-07-13T13:29:36;98571.53;;;15.89;65.90
53715;BME280;39608;55.630;37.864;2023-07-13T13:34:44;98583.34;;;15.94;65.84
53715;BME280;39608;55.630;37.864;2023-07-13T13:39:47;98563.66;;;15.88;65.68
53715;BME280;39608;55.630;37.864;2023-07-13T13:44:51;98573.78;;;15.87;65.47
53715;BME280;39608;55.630;37.864;2023-07-13T13:49:55;98557.41;;;15.87;65.50
53715;BME280;39608;55.630;37.864;2023-07-13T13:54:57;98560.13;;;15.87;65.17
53715;BME280;39608;55.630;37.864;2023-07-13T13:59:59;98560.41;;;15.82;65.25
53715;BME280;39608;55.630;37.864;2023-07-13T14:05:03;98559.25;;;15.83;65.32
53715;BME280;39608;55.630;37.864;2023-07-13T14:10:12;98562.38;;;15.69;65.73
53715;BME280;39608;55.630;37.864;2023-07-13T14:15:20;98554.28;;;15.73;66.00
53715;BME280;39608;55.630;37.864;2023-07-13T14:20:24;98556.56;;;15.71;65.87
53715;BME280;39608;55.630;37.864;2023-07-13T14:25:27;98561.84;;;15.64;66.34
53715;BME280;39608;55.630;37.864;2023-07-13T14:30:29;98549.88;;;15.52;66.59
53715;BME280;39608;55.630;37.864;2023-07-13T14:35:33;98547.41;;;15.63;66.57
53715;BME280;39608;55.630;37.864;2023-07-13T14:40:35;98535.25;;;15.61;66.80
53715;BME280;39608;55.630;37.864;2023-07-13T14:45:39;98544.31;;;15.65;66.89
53715;BME280;39608;55.630;37.864;2023-07-13T14:50:44;98548.72;;;15.69;66.90
53715;BME280;39608;55.630;37.864;2023-07-13T14:55:47;98547.22;;;15.72;67.02
53715;BME280;39608;55.630;37.864;2023-07-13T15:00:49;98549.69;;;15.77;67.07
53715;BME280;39608;55.630;37.864;2023-07-13T15:05:57;98542.59;;;15.88;66.83
53715;BME280;39608;55.630;37.864;2023-07-13T15:10:59;98546.91;;;15.89;66.72
53715;BME280;39608;55.630;37.864;2023-07-13T15:16:01;98556.00;;;15.94;66.98
53715;BME280;39608;55.630;37.864;2023-07-13T15:21:08;98546.72;;;15.98;67.10
53715;BME280;39608;55.630;37.864;2023-07-13T15:26:14;98553.41;;;16.01;66.53
53715;BME280;39608;55.630;37.864;2023-07-13T15:31:20;98554.13;;;15.98;66.79
53715;BME280;39608;55.630;37.864;2023-07-13T15:36:24;98567.25;;;16.08;66.77
53715;BME280;39608;55.630;37.864;2023-07-13T15:41:28;98555.09;;;16.05;66.53
53715;BME280;39608;55.630;37.864;2023-07-13T15:46:30;98542.19;;;16.06;66.41
53715;BME280;39608;55.630;37.864;2023-07-13T15:51:34;98541.94;;;16.11;67.02
53715;BME280;39608;55.630;37.864;2023-07-13T15:56:37;98532.50;;;16.08;66.47
53715;BME280;39608;55.630;37.864;2023-07-13T16:01:41;98526.59;;;16.06;66.65
53715;BME280;39608;55.630;37.864;2023-07-13T16:06:49;98530.91;;;16.07;66.91
53715;BME280;39608;55.630;37.864;2023-07-13T16:11:51;98539.13;;;16.07;66.92
53715;BME280;39608;55.630;37.864;2023-07-13T16:16:55;98537.97;;;16.08;67.13
53715;BME280;39608;55.630;37.864;2023-07-13T16:21:59;98536.09;;;16.13;67.04
53715;BME280;39608;55.630;37.864;2023-07-13T16:27:02;98536.81;;;16.10;67.22
53715;BME280;39608;55.630;37.864;2023-07-13T16:32:13;98518.13;;;15.96;67.42
53715;BME280;39608;55.630;37.864;2023-07-13T16:37:18;98510.13;;;15.87;67.65
53715;BME280;39608;55.630;37.864;2023-07-13T16:42:21;98539.06;;;15.88;67.71
53715;BME280;39608;55.630;37.864;2023-07-13T16:47:23;98538.59;;;15.86;67.83
53715;BME280;39608;55.630;37.864;2023-07-13T16:52:27;98530.34;;;15.82;68.47
53715;BME280;39608;55.630;37.864;2023-07-13T16:57:33;98529.16;;;15.83;68.38
53715;BME280;39608;55.630;37.864;2023-07-13T17:02:38;98537.38;;;15.83;68.31
53715;BME280;39608;55.630;37.864;2023-07-13T17:07:41;98527.59;;;15.82;68.61
53715;BME280;39608;55.630;37.864;2023-07-13T17:12:46;98525.09;;;15.77;68.57
53715;BME280;39608;55.630;37.864;2023-07-13T17:17:49;98519.47;;;15.70;68.86
53715;BME280;39608;55.630;37.864;2023-07-13T17:22:53;98511.63;;;15.68;68.81
53715;BME280;39608;55.630;37.864;2023-07-13T17:27:56;98519.72;;;15.65;68.66
53715;BME280;39608;55.630;37.864;2023-07-13T17:32:58;98521.47;;;15.57;68.89
53715;BME280;39608;55.630;37.864;2023-07-13T17:38:04;98515.69;;;15.59;69.34
53715;BME280;39608;55.630;37.864;2023-07-13T17:43:06;98521.41;;;15.53;69.10
53715;BME280;39608;55.630;37.864;2023-07-13T17:48:09;98529.25;;;15.55;69.24
53715;BME280;39608;55.630;37.864;2023-07-13T17:53:16;98520.25;;;15.54;69.64
53715;BME280;39608;55.630;37.864;2023-07-13T17:58:18;98513.81;;;15.47;69.45
53715;BME280;39608;55.630;37.864;2023-07-13T18:03:24;98510.72;;;15.48;69.86
53715;BME280;39608;55.630;37.864;2023-07-13T18:08:33;98517.97;;;15.56;69.90
53715;BME280;39608;55.630;37.864;2023-07-13T18:13:35;98521.41;;;15.53;70.00
53715;BME280;39608;55.630;37.864;2023-07-13T18:18:42;98523.00;;;15.54;70.10
53715;BME280;39608;55.630;37.864;2023-07-13T18:23:47;98517.97;;;15.56;70.75
53715;BME280;39608;55.630;37.864;2023-07-13T18:28:50;98530.56;;;15.61;70.46
53715;BME280;39608;55.630;37.864;2023-07-13T18:33:54;98516.38;;;15.55;70.18
53715;BME280;39608;55.630;37.864;2023-07-13T18:38:59;98531.09;;;15.67;70.82
53715;BME280;39608;55.630;37.864;2023-07-13T18:44:03;98534.28;;;15.69;70.32
53715;BME280;39608;55.630;37.864;2023-07-13T18:49:07;98528.81;;;15.69;70.18
53715;BME280;39608;55.630;37.864;2023-07-13T18:54:13;98538.78;;;15.77;70.97
53715;BME280;39608;55.630;37.864;2023-07-13T18:59:16;98544.00;;;15.82;70.50
53715;BME280;39608;55.630;37.864;2023-07-13T19:04:29;98546.34;;;16.00;70.96
53715;BME280;39608;55.630;37.864;2023-07-13T19:09:33;98537.72;;;15.98;70.24
53715;BME280;39608;55.630;37.864;2023-07-13T19:14:36;98532.25;;;15.98;70.19
53715;BME280;39608;55.630;37.864;2023-07-13T19:19:41;98518.28;;;16.03;69.88
53715;BME280;39608;55.630;37.864;2023-07-13T19:24:47;98528.81;;;16.01;69.99
53715;BME280;39608;55.630;37.864;2023-07-13T19:29:49;98538.16;;;16.00;69.98
53715;BME280;39608;55.630;37.864;2023-07-13T19:34:51;98545.75;;;16.06;69.93
53715;BME280;39608;55.630;37.864;2023-07-13T19:39:56;98545.81;;;16.10;69.75
53715;BME280;39608;55.630;37.864;2023-07-13T19:44:59;98543.53;;;16.12;70.16
53715;BME280;39608;55.630;37.864;2023-07-13T19:50:01;98540.44;;;16.14;69.87
53715;BME280;39608;55.630;37.864;2023-07-13T19:55:11;98536.19;;;16.16;70.20
53715;BME280;39608;55.630;37.864;2023-07-13T20:00:15;98533.81;;;16.15;70.10
53715;BME280;39608;55.630;37.864;2023-07-13T20:05:19;98549.06;;;16.16;70.02
53715;BME280;39608;55.630;37.864;2023-07-13T20:10:25;98557.88;;;16.25;70.09
53715;BME280;39608;55.630;37.864;2023-07-13T20:15:31;98559.09;;;16.28;69.93
53715;BME280;39608;55.630;37.864;2023-07-13T20:20:35;98542.53;;;16.20;69.92
53715;BME280;39608;55.630;37.864;2023-07-13T20:25:43;98572.78;;;16.28;69.65
53715;BME280;39608;55.630;37.864;2023-07-13T20:30:47;98570.78;;;16.24;69.48
53715;BME280;39608;55.630;37.864;2023-07-13T20:35:50;98565.56;;;16.19;69.31
53715;BME280;39608;55.630;37.864;2023-07-13T20:40:54;98581.97;;;16.19;69.27
53715;BME280;39608;55.630;37.864;2023-07-13T20:46:00;98569.53;;;16.22;69.51
53715;BME280;39608;55.630;37.864;2023-07-13T20:51:04;98563.97;;;16.18;69.20
